createdAt,value
2023-05-23T00:01:59.032Z,12.60
2023-05-23T00:04:31.496Z,11.32
2023-05-23T00:07:08.269Z,11.57
2023-05-23T00:09:40.645Z,11.10
2023-05-23T00:12:12.715Z,13.25
2023-05-23T00:14:45.519Z,11.50
2023-05-23T00:17:17.797Z,12.15
2023-05-23T00:19:50.008Z,10.90
2023-05-23T00:22:22.427Z,11.32
2023-05-23T00:24:55.101Z,10.40
2023-05-23T00:27:27.153Z,11.23
2023-05-23T00:29:59.252Z,10.88
2023-05-23T00:32:31.391Z,11.25
2023-05-23T00:35:03.976Z,9.80
2023-05-23T00:37:36.094Z,10.25
2023-05-23T00:40:08.909Z,10.38
2023-05-23T00:42:40.997Z,9.73
2023-05-23T00:45:13.142Z,8.90
2023-05-23T00:47:54.526Z,7.53
2023-05-23T00:50:30.878Z,8.35
2023-05-23T00:53:03.149Z,8.52
2023-05-23T00:55:35.442Z,7.60
2023-05-23T00:58:07.519Z,6.80
2023-05-23T01:00:39.664Z,7.93
2023-05-23T01:03:18.476Z,7.70
2023-05-23T01:05:51.757Z,6.70
2023-05-23T01:08:23.886Z,7.93
2023-05-23T01:11:02.942Z,7.38
2023-05-23T01:13:45.194Z,7.13
2023-05-23T01:16:33.616Z,7.85
2023-05-23T01:19:42.729Z,7.97
2023-05-23T01:23:25.498Z,7.25
2023-05-23T01:26:19.870Z,9.02
2023-05-23T01:29:03.440Z,8.43
2023-05-23T01:31:38.261Z,8.95
2023-05-23T01:34:12.852Z,7.93
2023-05-23T01:36:45.464Z,8.43
2023-05-23T01:39:17.752Z,8.13
2023-05-23T01:41:51.665Z,8.63
2023-05-23T01:44:23.789Z,8.43
2023-05-23T01:46:55.977Z,8.38
2023-05-23T01:49:28.453Z,8.15
2023-05-23T01:52:02.148Z,8.38
2023-05-23T01:54:35.671Z,8.38
2023-05-23T01:57:07.780Z,9.13
2023-05-23T01:59:39.946Z,8.25
2023-05-23T02:02:12.259Z,8.32
2023-05-23T02:04:44.435Z,8.80
2023-05-23T02:07:16.538Z,10.57
2023-05-23T02:09:49.011Z,9.68
2023-05-23T02:12:21.235Z,9.23
2023-05-23T02:14:55.499Z,10.02
2023-05-23T02:17:27.820Z,9.27
2023-05-23T02:19:59.963Z,10.18
2023-05-23T02:22:32.172Z,12.38
2023-05-23T02:25:04.872Z,14.38
2023-05-23T02:27:36.975Z,13.35
2023-05-23T02:30:09.746Z,13.90
2023-05-23T02:32:41.871Z,15.52
2023-05-23T02:35:14.308Z,15.40
2023-05-23T02:37:46.381Z,16.00
2023-05-23T02:40:18.468Z,17.70
2023-05-23T02:42:51.833Z,18.05
2023-05-23T02:45:24.754Z,18.85
2023-05-23T02:47:56.914Z,18.15
2023-05-23T02:50:29.079Z,17.73
2023-05-23T02:53:01.163Z,18.02
2023-05-23T02:55:33.416Z,20.02
2023-05-23T02:58:06.020Z,19.77
2023-05-23T03:00:44.022Z,20.55
2023-05-23T03:03:17.260Z,21.00
2023-05-23T03:05:50.043Z,19.30
2023-05-23T03:08:22.380Z,22.23
2023-05-23T03:10:54.678Z,21.83
2023-05-23T03:13:36.376Z,24.38
2023-05-23T03:16:08.715Z,22.25
2023-05-23T03:18:42.362Z,22.00
2023-05-23T03:21:14.998Z,25.95
2023-05-23T03:23:47.503Z,26.40
2023-05-23T03:26:23.287Z,26.73
2023-05-23T03:28:56.396Z,28.98
2023-05-23T03:31:28.857Z,29.65
2023-05-23T03:34:01.415Z,31.83
2023-05-23T03:36:34.527Z,33.13
2023-05-23T03:39:07.121Z,33.42
2023-05-23T03:41:39.439Z,33.28
2023-05-23T03:44:15.015Z,35.05
2023-05-23T03:46:47.518Z,36.22
2023-05-23T03:49:50.580Z,35.17
2023-05-23T03:52:23.554Z,35.78
2023-05-23T03:54:55.758Z,34.53
2023-05-23T03:57:29.339Z,32.55
2023-05-23T04:00:01.789Z,33.08
2023-05-23T04:02:34.205Z,33.17
2023-05-23T04:05:07.429Z,30.58
2023-05-23T04:07:40.475Z,34.42
2023-05-23T04:10:12.913Z,35.05
2023-05-23T04:13:05.548Z,34.95
2023-05-23T04:15:38.000Z,31.63
2023-05-23T04:18:10.761Z,32.03
2023-05-23T04:20:43.203Z,28.48
2023-05-23T04:23:46.206Z,28.80
2023-05-23T04:26:20.941Z,30.30
2023-05-23T04:28:54.573Z,29.77
2023-05-23T04:31:27.277Z,26.33
2023-05-23T04:33:59.615Z,23.48
2023-05-23T04:36:31.905Z,23.67
2023-05-23T04:39:11.478Z,21.90
2023-05-23T04:41:45.579Z,21.35
2023-05-23T04:44:21.274Z,22.90
2023-05-23T04:46:54.143Z,21.08
2023-05-23T04:49:27.191Z,19.98
2023-05-23T04:51:59.589Z,19.90
2023-05-23T04:54:31.884Z,18.13
2023-05-23T04:57:04.441Z,21.73
2023-05-23T04:59:39.660Z,21.92
2023-05-23T05:02:19.578Z,19.85
2023-05-23T05:04:52.034Z,20.35
2023-05-23T05:07:27.364Z,17.50
2023-05-23T05:10:01.268Z,16.88
2023-05-23T05:12:34.666Z,16.02
2023-05-23T05:15:08.185Z,14.80
2023-05-23T05:17:40.950Z,14.52
2023-05-23T05:20:13.430Z,14.85
2023-05-23T05:22:57.954Z,14.70
2023-05-23T05:25:32.583Z,19.83
2023-05-23T05:28:07.854Z,16.13
2023-05-23T05:30:40.526Z,17.98
2023-05-23T05:33:14.968Z,14.65
2023-05-23T05:35:47.530Z,16.42
2023-05-23T05:38:20.544Z,16.35
2023-05-23T05:40:55.027Z,17.58
2023-05-23T05:43:27.430Z,14.82
2023-05-23T05:45:59.782Z,16.52
2023-05-23T05:48:32.450Z,17.73
2023-05-23T05:51:05.149Z,16.05
2023-05-23T05:53:37.614Z,16.48
2023-05-23T05:56:09.909Z,16.33
2023-05-23T05:58:45.283Z,14.65
2023-05-23T06:01:18.089Z,14.57
2023-05-23T06:03:50.588Z,12.98
2023-05-23T06:06:22.960Z,12.27
2023-05-23T06:08:55.291Z,12.07
2023-05-23T06:11:28.270Z,12.02
2023-05-23T06:14:00.785Z,11.60
2023-05-23T06:16:38.171Z,11.25
2023-05-23T06:19:10.684Z,10.48
2023-05-23T06:21:42.959Z,10.85
2023-05-23T06:24:18.739Z,9.70
2023-05-23T06:26:51.104Z,9.35
2023-05-23T06:29:23.555Z,8.75
2023-05-23T06:31:56.122Z,8.85
2023-05-23T06:34:28.613Z,8.38
2023-05-23T06:37:00.978Z,8.85
2023-05-23T06:39:33.353Z,9.13
2023-05-23T06:42:06.197Z,8.75
2023-05-23T06:44:38.900Z,8.52
2023-05-23T06:47:11.262Z,9.25
2023-05-23T06:49:43.536Z,8.77
2023-05-23T06:52:15.778Z,9.07
2023-05-23T06:54:48.121Z,9.68
2023-05-23T06:57:20.477Z,8.52
2023-05-23T06:59:55.580Z,7.60
2023-05-23T07:02:27.845Z,8.27
2023-05-23T07:05:00.371Z,8.00
2023-05-23T07:07:32.815Z,6.50
2023-05-23T07:10:05.621Z,6.07
2023-05-23T07:12:37.938Z,6.47
2023-05-23T07:15:18.605Z,4.90
2023-05-23T07:17:51.015Z,4.95
2023-05-23T07:20:23.378Z,4.90
2023-05-23T07:22:56.032Z,4.80
2023-05-23T07:25:28.453Z,6.28
2023-05-23T07:28:01.035Z,4.95
2023-05-23T07:30:33.492Z,5.88
2023-05-23T07:33:05.892Z,4.78
2023-05-23T07:35:38.206Z,6.95
2023-05-23T07:38:10.663Z,5.03
2023-05-23T07:40:43.231Z,6.25
2023-05-23T07:43:15.681Z,6.15
2023-05-23T07:45:50.860Z,5.18
2023-05-23T07:48:23.105Z,5.38
2023-05-23T07:50:55.808Z,6.10
2023-05-23T07:53:28.086Z,6.68
2023-05-23T07:56:00.320Z,5.03
2023-05-23T07:58:32.620Z,5.60
2023-05-23T08:01:05.161Z,5.22
2023-05-23T08:03:37.823Z,6.93
2023-05-23T08:06:10.477Z,5.78
2023-05-23T08:08:44.048Z,4.63
2023-05-23T08:11:16.506Z,4.85
2023-05-23T08:13:48.959Z,3.88
2023-05-23T08:16:21.970Z,3.63
2023-05-23T08:18:54.515Z,3.15
2023-05-23T08:21:27.093Z,4.57
2023-05-23T08:23:59.796Z,4.32
2023-05-23T08:26:35.178Z,4.90
2023-05-23T08:29:07.647Z,5.30
2023-05-23T08:31:39.942Z,5.18
2023-05-23T08:34:12.949Z,7.32
2023-05-23T08:36:45.432Z,5.88
2023-05-23T08:39:17.895Z,5.72
2023-05-23T08:41:50.964Z,5.97
2023-05-23T08:44:23.438Z,7.03
2023-05-23T08:46:58.705Z,6.20
2023-05-23T08:49:32.093Z,5.50
2023-05-23T08:52:04.944Z,5.50
2023-05-23T08:54:37.536Z,5.53
2023-05-23T08:57:11.973Z,5.03
2023-05-23T08:59:44.605Z,6.35
2023-05-23T09:02:17.298Z,6.45
2023-05-23T09:04:49.661Z,7.28
2023-05-23T09:07:21.733Z,7.63
2023-05-23T09:09:53.937Z,5.43
2023-05-23T09:12:26.204Z,7.68
2023-05-23T09:14:58.339Z,5.40
2023-05-23T09:17:34.992Z,7.03
2023-05-23T09:20:18.491Z,6.32
2023-05-23T09:22:50.742Z,5.40
2023-05-23T09:25:22.960Z,6.07
2023-05-23T09:27:56.807Z,6.55
2023-05-23T09:30:35.296Z,5.88
2023-05-23T09:33:08.735Z,6.43
2023-05-23T09:35:46.462Z,6.05
2023-05-23T09:38:19.921Z,5.43
2023-05-23T09:40:58.140Z,5.40
2023-05-23T09:43:30.570Z,5.20
2023-05-23T09:46:11.475Z,5.28
2023-05-23T09:48:52.411Z,4.85
2023-05-23T09:51:24.836Z,6.20
2023-05-23T09:53:57.206Z,4.13
2023-05-23T09:56:29.802Z,5.75
2023-05-23T09:59:03.272Z,5.63
2023-05-23T10:01:36.017Z,5.95
2023-05-23T10:04:09.597Z,4.88
2023-05-23T10:06:43.288Z,4.07
2023-05-23T10:09:20.436Z,5.22
2023-05-23T10:12:45.231Z,4.68
2023-05-23T10:15:19.377Z,5.05
2023-05-23T10:18:04.418Z,4.18
2023-05-23T10:20:40.971Z,5.75
2023-05-23T10:23:13.878Z,5.53
2023-05-23T10:25:46.434Z,4.65
2023-05-23T10:28:18.869Z,6.18
2023-05-23T10:30:51.508Z,4.47
2023-05-23T10:33:27.063Z,7.85
2023-05-23T10:36:26.021Z,5.60
2023-05-23T10:39:14.122Z,4.57
2023-05-23T10:42:42.270Z,5.45
2023-05-23T10:45:24.889Z,5.47
2023-05-23T10:47:57.208Z,4.57
2023-05-23T10:50:36.002Z,4.95
2023-05-23T10:53:11.508Z,5.28
2023-05-23T10:55:49.652Z,4.05
2023-05-23T10:58:23.442Z,4.47
2023-05-23T11:01:02.682Z,4.80
2023-05-23T11:03:47.187Z,5.32
2023-05-23T11:06:45.162Z,4.53
2023-05-23T11:09:19.731Z,4.85
2023-05-23T11:12:05.955Z,4.07
2023-05-23T11:14:40.893Z,3.97
2023-05-23T11:17:13.222Z,5.20
2023-05-23T11:20:17.229Z,4.75
2023-05-23T11:23:12.374Z,4.53
2023-05-23T11:25:52.315Z,4.38
2023-05-23T11:28:25.281Z,4.57
2023-05-23T11:30:57.880Z,4.40
2023-05-23T11:33:31.285Z,4.95
2023-05-23T11:36:05.078Z,5.70
2023-05-23T11:38:37.280Z,5.30
2023-05-23T11:41:09.373Z,5.53
2023-05-23T11:43:53.402Z,3.90
2023-05-23T11:46:25.873Z,4.20
2023-05-23T11:48:58.257Z,4.32
2023-05-23T11:51:30.389Z,5.18
2023-05-23T11:54:02.538Z,5.18
2023-05-23T11:56:40.921Z,4.22
2023-05-23T11:59:13.243Z,4.70
2023-05-23T12:01:50.755Z,4.45
2023-05-23T12:04:23.322Z,4.28
2023-05-23T12:06:55.838Z,4.72
2023-05-23T12:09:28.099Z,6.20
2023-05-23T12:12:01.331Z,5.07
2023-05-23T12:14:34.765Z,3.67
2023-05-23T12:17:06.899Z,3.58
2023-05-23T12:19:41.018Z,4.32
2023-05-23T12:22:13.235Z,4.82
2023-05-23T12:25:43.406Z,3.80
2023-05-23T12:28:16.314Z,4.70
2023-05-23T12:30:49.827Z,4.30
2023-05-23T12:33:22.086Z,4.63
2023-05-23T12:35:54.251Z,4.32
2023-05-23T12:38:29.097Z,4.25
2023-05-23T12:41:21.103Z,3.95
2023-05-23T12:43:55.263Z,4.07
2023-05-23T12:46:28.439Z,3.92
2023-05-23T12:49:00.624Z,4.70
2023-05-23T12:51:32.936Z,4.90
2023-05-23T12:54:05.253Z,3.50
2023-05-23T12:56:37.411Z,3.17
2023-05-23T12:59:09.643Z,3.38
2023-05-23T13:01:41.960Z,3.20
2023-05-23T13:04:14.289Z,3.65
2023-05-23T13:06:46.952Z,2.63
2023-05-23T13:09:19.274Z,3.25
2023-05-23T13:11:51.805Z,3.20
2023-05-23T13:19:47.169Z,8.40
2023-05-23T13:22:19.440Z,3.42
2023-05-23T13:25:14.704Z,3.53
2023-05-23T13:27:48.913Z,3.55
2023-05-23T13:30:23.240Z,4.53
2023-05-23T13:32:55.926Z,3.22
2023-05-23T13:35:28.529Z,4.90
2023-05-23T13:38:01.134Z,4.60
2023-05-23T13:40:33.427Z,3.90
2023-05-23T13:43:06.329Z,4.20
2023-05-23T13:45:39.190Z,3.85
2023-05-23T13:48:20.692Z,4.85
2023-05-23T13:52:20.728Z,4.15
2023-05-23T13:54:57.327Z,3.92
2023-05-23T13:57:29.662Z,4.65
2023-05-23T14:00:03.437Z,3.92
2023-05-23T14:02:37.728Z,3.88
2023-05-23T14:05:47.959Z,4.03
2023-05-23T14:08:20.600Z,4.60
2023-05-23T14:10:53.436Z,3.03
2023-05-23T14:13:25.864Z,8.27
2023-05-23T14:15:58.410Z,3.72
2023-05-23T14:18:30.835Z,4.00
2023-05-23T14:21:03.419Z,3.60
2023-05-23T14:23:35.555Z,3.85
2023-05-23T14:26:08.132Z,3.47
2023-05-23T14:28:40.657Z,2.50
2023-05-23T14:31:13.038Z,3.42
2023-05-23T14:34:12.126Z,3.47
2023-05-23T14:36:47.390Z,3.60
2023-05-23T14:39:19.557Z,4.22
2023-05-23T14:41:51.904Z,3.92
2023-05-23T14:44:24.876Z,3.90
2023-05-23T14:46:57.336Z,3.08
2023-05-23T14:49:32.761Z,3.65
2023-05-23T14:52:05.281Z,3.72
2023-05-23T14:54:37.527Z,3.60
2023-05-23T14:57:10.589Z,3.78
2023-05-23T14:59:46.787Z,3.08
2023-05-23T15:02:21.843Z,3.50
2023-05-23T15:04:56.521Z,3.88
2023-05-23T15:10:19.335Z,3.05
2023-05-23T15:12:52.118Z,3.65
2023-05-23T15:15:24.631Z,3.33
2023-05-23T15:18:39.419Z,3.42
2023-05-23T15:21:15.262Z,3.42
2023-05-23T15:23:47.628Z,2.65
2023-05-23T15:26:20.206Z,3.38
2023-05-23T15:28:52.433Z,4.13
2023-05-23T15:32:16.979Z,3.53
2023-05-23T15:34:51.314Z,3.33
2023-05-23T15:37:23.702Z,3.50
2023-05-23T15:40:16.238Z,3.67
2023-05-23T15:42:48.559Z,4.15
2023-05-23T15:45:20.878Z,3.05
2023-05-23T15:47:53.166Z,2.85
2023-05-23T15:50:28.356Z,2.92
2023-05-23T15:53:00.625Z,3.58
2023-05-23T15:55:33.152Z,3.35
2023-05-23T15:58:10.847Z,4.15
2023-05-23T16:00:50.856Z,3.72
2023-05-23T16:03:34.467Z,3.95
2023-05-23T16:06:28.679Z,4.10
2023-05-23T16:09:03.226Z,5.22
2023-05-23T16:11:35.732Z,3.65
2023-05-23T16:14:08.029Z,3.60
2023-05-23T16:20:32.516Z,3.33
2023-05-23T16:23:07.890Z,3.47
2023-05-23T16:25:40.212Z,3.33
2023-05-23T16:28:51.130Z,3.65
2023-05-23T16:31:28.125Z,4.97
2023-05-23T16:34:07.225Z,3.55
2023-05-23T16:36:39.487Z,4.07
2023-05-23T16:39:16.748Z,2.97
2023-05-23T16:42:16.910Z,3.50
2023-05-23T16:44:53.482Z,3.15
2023-05-23T16:47:41.937Z,3.95
2023-05-23T16:50:14.565Z,3.05
2023-05-23T16:52:46.763Z,3.60
2023-05-23T16:55:19.021Z,3.42
2023-05-23T16:57:51.164Z,3.78
2023-05-23T17:00:23.385Z,4.47
2023-05-23T17:02:55.969Z,3.70
2023-05-23T17:05:28.356Z,3.47
2023-05-23T17:08:00.693Z,2.60
2023-05-23T17:10:33.755Z,3.35
2023-05-23T17:13:06.042Z,3.58
2023-05-23T17:15:38.267Z,3.75
2023-05-23T17:18:10.635Z,3.95
2023-05-23T17:20:42.813Z,3.67
2023-05-23T17:23:14.944Z,3.85
2023-05-23T17:25:47.546Z,4.35
2023-05-23T17:28:19.713Z,2.92
2023-05-23T17:30:53.336Z,3.72
2023-05-23T17:33:25.555Z,3.58
2023-05-23T17:35:57.704Z,3.88
2023-05-23T17:38:29.934Z,3.75
2023-05-23T17:41:02.102Z,3.28
2023-05-23T17:43:35.877Z,3.95
2023-05-23T17:46:08.194Z,3.97
2023-05-23T17:48:47.525Z,3.67
2023-05-23T17:51:21.078Z,3.67
2023-05-23T17:53:54.060Z,3.55
2023-05-23T17:56:26.352Z,4.80
2023-05-23T17:58:58.763Z,3.85
2023-05-23T18:01:31.223Z,4.70
2023-05-23T18:04:03.579Z,4.72
2023-05-23T18:06:36.260Z,4.82
2023-05-23T18:09:09.955Z,5.10
2023-05-23T18:11:47.468Z,3.75
2023-05-23T18:14:19.951Z,4.43
2023-05-23T18:16:52.776Z,3.83
2023-05-23T18:19:26.476Z,3.67
2023-05-23T18:21:59.599Z,3.78
2023-05-23T18:24:31.871Z,4.75
2023-05-23T18:27:04.891Z,4.38
2023-05-23T18:29:37.453Z,3.92
2023-05-23T18:32:09.939Z,3.63
2023-05-23T18:34:42.602Z,3.92
2023-05-23T18:37:19.265Z,3.47
2023-05-23T18:39:51.675Z,3.72
2023-05-23T18:42:24.307Z,3.60
2023-05-23T18:44:56.603Z,3.40
2023-05-23T18:47:28.833Z,4.18
2023-05-23T18:50:01.481Z,3.50
2023-05-23T18:52:37.340Z,4.03
2023-05-23T18:55:14.724Z,4.07
2023-05-23T18:57:50.773Z,4.22
2023-05-23T19:00:22.981Z,3.95
2023-05-23T19:02:55.344Z,5.00
2023-05-23T19:05:27.755Z,4.07
2023-05-23T19:07:59.889Z,4.22
2023-05-23T19:10:32.051Z,4.15
2023-05-23T19:13:05.347Z,4.00
2023-05-23T19:15:38.055Z,4.72
2023-05-23T19:18:10.729Z,4.13
2023-05-23T19:20:43.500Z,4.35
2023-05-23T19:23:16.454Z,5.05
2023-05-23T19:25:48.728Z,4.28
2023-05-23T19:28:21.492Z,3.97
2023-05-23T19:30:53.648Z,4.90
2023-05-23T19:33:26.150Z,5.82
2023-05-23T19:35:59.383Z,5.25
2023-05-23T19:38:32.095Z,4.75
2023-05-23T19:41:05.169Z,4.53
2023-05-23T19:46:33.790Z,4.95
2023-05-23T19:51:28.788Z,4.70
2023-05-23T19:52:47.154Z,6.20
2023-05-23T19:55:39.225Z,5.15
2023-05-23T19:58:14.469Z,27.80
2023-05-23T20:01:17.685Z,5.28
2023-05-23T20:03:56.252Z,3.78
2023-05-23T20:06:28.903Z,3.92
2023-05-23T20:09:09.611Z,4.78
2023-05-23T20:11:47.162Z,4.22
2023-05-23T20:14:22.778Z,5.18
2023-05-23T20:16:59.120Z,5.18
2023-05-23T20:19:47.677Z,7.10
2023-05-23T20:22:20.072Z,5.93
2023-05-23T20:24:52.406Z,4.70
2023-05-23T20:27:24.874Z,6.10
2023-05-23T20:30:04.409Z,5.05
2023-05-23T20:32:37.286Z,5.53
2023-05-23T20:35:13.215Z,5.13
2023-05-23T20:37:49.345Z,6.10
2023-05-23T20:40:23.157Z,5.47
2023-05-23T20:43:04.851Z,5.32
2023-05-23T20:45:37.292Z,6.35
2023-05-23T20:48:09.675Z,6.30
2023-05-23T20:50:42.284Z,6.97
2023-05-23T20:53:14.995Z,5.32
2023-05-23T20:56:01.001Z,5.90
2023-05-23T20:58:34.059Z,5.95
2023-05-23T21:01:06.649Z,4.82
2023-05-23T21:03:39.792Z,6.25
2023-05-23T21:06:12.211Z,5.20
2023-05-23T21:08:50.464Z,6.30
2023-05-23T21:11:26.467Z,8.32
2023-05-23T21:13:59.039Z,5.97
2023-05-23T21:16:33.237Z,6.15
2023-05-23T21:19:06.001Z,6.82
2023-05-23T21:21:38.572Z,7.47
2023-05-23T21:24:10.797Z,6.20
2023-05-23T21:26:43.763Z,6.78
2023-05-23T21:29:16.243Z,13.43
2023-05-23T21:31:48.633Z,9.77
2023-05-23T21:34:24.185Z,7.57
2023-05-23T21:36:56.941Z,6.25
2023-05-23T21:39:39.252Z,7.30
2023-05-23T21:44:52.485Z,6.20
2023-05-23T21:47:25.313Z,5.35
2023-05-23T21:49:57.754Z,7.72
2023-05-23T21:52:30.881Z,6.20
2023-05-23T21:55:06.468Z,6.93
2023-05-23T21:57:38.864Z,6.07
2023-05-23T22:00:15.607Z,6.43
2023-05-23T22:02:48.693Z,4.90
2023-05-23T22:05:21.261Z,6.15
2023-05-23T22:07:53.530Z,5.88
2023-05-23T22:10:25.832Z,5.72
2023-05-23T22:12:58.601Z,6.13
2023-05-23T22:15:32.732Z,7.03
2023-05-23T22:18:05.216Z,5.38
2023-05-23T22:20:39.319Z,7.40
2023-05-23T22:23:17.002Z,5.72
2023-05-23T22:25:49.415Z,5.10
2023-05-23T22:28:21.830Z,5.82
2023-05-23T22:30:54.259Z,7.07
2023-05-23T22:33:28.841Z,6.57
2023-05-23T22:36:46.423Z,6.80
2023-05-23T22:40:07.611Z,5.95
2023-05-23T22:42:47.402Z,7.32
2023-05-23T22:52:35.920Z,7.28
2023-05-23T22:55:09.965Z,6.43
2023-05-23T22:57:43.948Z,6.45
2023-05-23T23:00:16.572Z,6.95
2023-05-23T23:02:49.029Z,7.65
2023-05-23T23:05:22.325Z,8.15
2023-05-23T23:07:54.756Z,6.85
2023-05-23T23:10:27.057Z,7.90
2023-05-23T23:12:59.241Z,6.55
2023-05-23T23:15:34.076Z,7.47
2023-05-23T23:18:06.909Z,9.25
2023-05-23T23:20:39.461Z,7.97
2023-05-23T23:23:18.992Z,6.68
2023-05-23T23:25:52.495Z,10.50
2023-05-23T23:28:24.936Z,7.38
2023-05-23T23:30:57.138Z,7.40
2023-05-23T23:33:29.597Z,7.28
2023-05-23T23:36:01.775Z,7.13
2023-05-23T23:38:34.167Z,7.90
2023-05-23T23:41:06.395Z,7.43
2023-05-23T23:43:38.606Z,8.60
2023-05-23T23:46:11.463Z,7.13
2023-05-23T23:48:44.977Z,8.98
2023-05-23T23:51:17.306Z,7.85
2023-05-23T23:53:52.425Z,7.78
2023-05-23T23:56:26.382Z,9.25
2023-05-23T23:58:58.545Z,9.02
